Time;durP1;ratioP1;P1;durP2;ratioP2;P2;SDS_P1;SDS_P2;PMS_P1;PMS_P2;Temp;Humidity;BMP_temperature;BMP_pressure;BME280_temperature;BME280_humidity;BME280_pressure;Samples;Min_cycle;Max_cycle;Signal;HPM_P1;HPM_P2
2022/03/03 09:05:51;;;;;;;25.90;17.45;;;;;;;;;;6153756;23;20079;-90
2022/03/03 09:36:51;;;;;;;26.70;16.58;;;;;;;;;;6152338;23;20009;-96
2022/03/03 09:39:43;;;;;;;25.88;18.10;;;;;;;;;;6180678;23;20028;-96
2022/03/03 09:44:47;;;;;;;23.65;16.60;;;;;;;;;;6147428;23;20895;-93
2022/03/03 09:47:30;;;;;;;398.45;44.20;;;;;;;;;;6143197;23;20017;-96
2022/03/03 09:55:06;;;;;;;28.17;19.50;;;;;;;;;;6156787;23;20035;-96
2022/03/03 09:57:32;;;;;;;29.73;19.92;;;;;;;;;;6168350;23;20484;-92
2022/03/03 10:00:04;;;;;;;29.52;19.63;;;;;;;;;;6163802;23;20009;-95
2022/03/03 10:08:05;;;;;;;30.98;19.48;;;;;;;;;;6183638;23;20870;-95
2022/03/03 10:13:18;;;;;;;29.63;19.98;;;;;;;;;;6170991;23;20028;-96
2022/03/03 10:16:12;;;;;;;38.28;21.13;;;;;;;;;;6193134;23;20081;-95
2022/03/03 10:18:37;;;;;;;29.27;20.08;;;;;;;;;;6163963;23;20012;-94
2022/03/03 10:21:04;;;;;;;33.58;21.42;;;;;;;;;;6161673;23;20012;-91
2022/03/03 10:27:55;;;;;;;;;;;;;;;;;;;;;
2022/03/03 10:39:37;;;;;;;35.17;25.08;;;;;;;;;;6139652;23;20070;-92
2022/03/03 10:42:14;;;;;;;37.40;25.00;;;;;;;;;;6168061;23;20017;-96
2022/03/03 10:44:41;;;;;;;38.25;24.85;;;;;;;;;;6175120;23;20005;-96
2022/03/03 10:47:14;;;;;;;38.28;25.35;;;;;;;;;;6179623;23;20016;-96
2022/03/03 10:49:51;;;;;;;35.08;24.60;;;;;;;;;;6175762;23;20024;-95
2022/03/03 10:52:20;;;;;;;34.05;23.48;;;;;;;;;;6180254;23;20005;-96
2022/03/03 10:55:01;;;;;;;35.88;23.67;;;;;;;;;;6172701;23;20428;-96
2022/03/03 10:57:38;;;;;;;36.50;22.85;;;;;;;;;;6170626;23;20008;-96
2022/03/03 11:00:10;;;;;;;37.65;23.45;;;;;;;;;;6172424;23;20038;-96
2022/03/03 11:02:36;;;;;;;33.78;23.23;;;;;;;;;;6174950;23;20036;-96
2022/03/03 11:05:06;;;;;;;33.28;23.88;;;;;;;;;;6176818;23;20001;-96
2022/03/03 11:07:40;;;;;;;34.60;25.33;;;;;;;;;;6173559;23;20464;-96
2022/03/03 11:10:08;;;;;;;38.60;23.95;;;;;;;;;;6174972;23;20029;-95
2022/03/03 11:12:36;;;;;;;38.13;24.58;;;;;;;;;;6143675;23;19997;-96
2022/03/03 11:15:04;;;;;;;32.78;23.13;;;;;;;;;;6146383;23;19993;-96
2022/03/03 11:17:39;;;;;;;37.83;24.05;;;;;;;;;;6139035;23;20321;-96
2022/03/03 11:20:07;;;;;;;37.97;24.52;;;;;;;;;;6141397;23;20057;-96
2022/03/03 11:22:35;;;;;;;38.85;25.30;;;;;;;;;;6136096;23;20028;-96
2022/03/03 11:25:10;;;;;;;33.40;22.73;;;;;;;;;;6161091;23;20005;-96
2022/03/03 11:28:25;;;;;;;38.72;23.48;;;;;;;;;;6140862;23;20425;-96
2022/03/03 11:34:49;;;;;;;37.08;24.55;;;;;;;;;;6182818;23;20032;-96
2022/03/03 11:40:21;;;;;;;39.05;25.90;;;;;;;;;;6123790;23;20149;-96
2022/03/03 11:45:38;;;;;;;38.22;25.40;;;;;;;;;;6189664;23;20036;-96
2022/03/03 11:48:11;;;;;;;38.67;25.75;;;;;;;;;;6196230;23;20076;-94
2022/03/03 11:50:43;;;;;;;37.30;26.23;;;;;;;;;;6163143;23;20019;-94
2022/03/03 11:53:08;;;;;;;40.88;27.08;;;;;;;;;;6158599;23;20001;-95
2022/03/03 11:55:38;;;;;;;38.15;26.00;;;;;;;;;;6143643;23;20011;-96
2022/03/03 11:58:11;;;;;;;40.17;26.92;;;;;;;;;;6142279;23;20013;-96
2022/03/03 12:01:02;;;;;;;42.33;28.67;;;;;;;;;;6141837;23;20094;-96
2022/03/03 12:03:31;;;;;;;41.55;29.00;;;;;;;;;;6158111;23;20025;-96
2022/03/03 12:06:08;;;;;;;45.08;30.00;;;;;;;;;;6166964;23;20401;-96
2022/03/03 12:08:43;;;;;;;38.78;28.15;;;;;;;;;;6166099;23;20400;-96
2022/03/03 12:11:11;;;;;;;42.92;30.52;;;;;;;;;;6167048;23;20005;-96
2022/03/03 12:13:40;;;;;;;38.95;28.90;;;;;;;;;;6163121;23;20013;-96
2022/03/03 12:16:32;;;;;;;43.72;30.73;;;;;;;;;;6163115;23;20009;-96
2022/03/03 12:19:02;;;;;;;42.95;30.02;;;;;;;;;;6161536;23;20512;-96
2022/03/03 12:21:36;;;;;;;40.08;27.90;;;;;;;;;;6163107;23;20016;-96
2022/03/03 12:24:14;;;;;;;38.45;28.20;;;;;;;;;;6160845;23;20006;-96
2022/03/03 12:26:55;;;;;;;40.95;29.67;;;;;;;;;;6160467;23;20016;-96
2022/03/03 12:29:34;;;;;;;40.15;28.60;;;;;;;;;;6160611;23;19986;-96
2022/03/03 12:32:37;;;;;;;41.60;30.40;;;;;;;;;;6161704;23;20477;-96
2022/03/03 12:35:30;;;;;;;44.53;30.45;;;;;;;;;;6160797;23;20013;-94
2022/03/03 12:38:00;;;;;;;42.17;30.83;;;;;;;;;;6158274;23;20425;-96
2022/03/03 12:40:29;;;;;;;44.10;33.13;;;;;;;;;;6159166;23;20013;-94
2022/03/03 12:42:55;;;;;;;46.88;32.13;;;;;;;;;;6158701;23;20001;-94
2022/03/03 12:45:22;;;;;;;47.00;34.00;;;;;;;;;;6159047;23;20424;-94
2022/03/03 12:47:54;;;;;;;46.05;34.08;;;;;;;;;;6158313;23;20084;-94
2022/03/03 17:36:11;;;;;;;48.00;30.30;;;;;;;;;;6128561;23;1542081;-92
2022/03/03 17:38:50;;;;;;;45.80;28.95;;;;;;;;;;6222606;23;20036;-94
2022/03/03 17:41:16;;;;;;;47.17;28.33;;;;;;;;;;6226974;23;20008;-96
2022/03/03 17:43:43;;;;;;;51.00;28.58;;;;;;;;;;6254817;22;20015;-96
2022/03/03 17:46:10;;;;;;;47.20;29.67;;;;;;;;;;6256570;22;20032;-96
2022/03/03 17:49:13;;;;;;;46.15;29.35;;;;;;;;;;6268478;22;20434;-96
2022/03/03 17:51:43;;;;;;;47.60;28.70;;;;;;;;;;6266323;22;19999;-96
2022/03/03 17:54:22;;;;;;;44.42;28.88;;;;;;;;;;6266645;22;19988;-95
2022/03/03 17:56:52;;;;;;;48.92;30.30;;;;;;;;;;6272933;22;19992;-96
2022/03/03 18:07:09;;;;;;;45.35;29.13;;;;;;;;;;6281473;22;20033;-96
2022/03/03 18:09:35;;;;;;;47.65;30.40;;;;;;;;;;6259210;22;20012;-96
2022/03/03 18:12:03;;;;;;;47.55;28.98;;;;;;;;;;6250711;23;20004;-95
2022/03/03 18:14:33;;;;;;;51.38;29.10;;;;;;;;;;6255935;23;20035;-95
2022/03/03 18:17:13;;;;;;;;;;;;;;;;;;6251562;23;20000;-96
2022/03/03 18:19:48;;;;;;;49.47;31.08;;;;;;;;;;6250982;23;19994;-95
2022/03/03 18:22:14;;;;;;;47.38;28.65;;;;;;;;;;6251948;23;20071;-96
2022/03/03 18:24:40;;;;;;;46.90;28.52;;;;;;;;;;6255291;23;20005;-94
2022/03/03 18:27:08;;;;;;;45.90;29.15;;;;;;;;;;6255499;23;20474;-96
2022/03/03 18:29:42;;;;;;;45.30;28.38;;;;;;;;;;6258826;23;20023;-96
2022/03/03 18:32:15;;;;;;;47.88;27.13;;;;;;;;;;6253381;23;20068;-97
2022/03/03 18:34:43;;;;;;;46.28;27.30;;;;;;;;;;6260200;23;20419;-96
2022/03/03 18:37:22;;;;;;;44.53;28.02;;;;;;;;;;6250897;22;20084;-96
2022/03/03 18:39:51;;;;;;;49.95;29.77;;;;;;;;;;6255121;23;20004;-96
2022/03/03 18:42:39;;;;;;;50.13;30.23;;;;;;;;;;6256400;23;20024;-96
2022/03/03 18:45:06;;;;;;;47.25;29.67;;;;;;;;;;6144174;23;20032;-96
2022/03/03 18:47:38;;;;;;;47.00;30.17;;;;;;;;;;6165230;23;20001;-96
2022/03/03 18:57:50;;;;;;;44.13;27.30;;;;;;;;;;6284931;22;20046;-96
2022/03/03 19:00:17;;;;;;;46.08;28.17;;;;;;;;;;6256721;22;20090;-96
2022/03/03 19:02:43;;;;;;;43.83;29.55;;;;;;;;;;6258874;23;20008;-96
2022/03/03 19:05:12;;;;;;;45.22;28.17;;;;;;;;;;6256562;23;20008;-96
2022/03/03 19:07:56;;;;;;;49.90;32.10;;;;;;;;;;6254312;23;20008;-96
2022/03/03 19:10:29;;;;;;;47.35;29.38;;;;;;;;;;6249600;23;20027;-96
2022/03/03 19:12:55;;;;;;;48.17;29.70;;;;;;;;;;6250095;23;20035;-96
2022/03/03 19:15:21;;;;;;;53.85;29.08;;;;;;;;;;6254278;23;20416;-95
2022/03/03 19:17:47;;;;;;;48.72;29.88;;;;;;;;;;6249007;23;20008;-96
2022/03/03 19:20:16;;;;;;;47.33;28.92;;;;;;;;;;6250862;23;20320;-96
2022/03/03 19:22:44;;;;;;;49.58;29.65;;;;;;;;;;6250674;23;20012;-96
2022/03/03 19:25:10;;;;;;;51.13;30.65;;;;;;;;;;6249970;23;20095;-96
2022/03/03 19:27:39;;;;;;;48.15;29.23;;;;;;;;;;6249540;23;20008;-96
2022/03/03 19:30:07;;;;;;;44.58;28.13;;;;;;;;;;6249423;23;20082;-96
2022/03/03 20:28:19;;;;;;;45.72;28.13;;;;;;;;;;6230930;22;20243;-94
2022/03/03 20:30:45;;;;;;;48.72;29.02;;;;;;;;;;6253389;22;20454;-94
2022/03/03 20:33:13;;;;;;;49.40;28.13;;;;;;;;;;6253632;22;20085;-94
2022/03/03 20:35:39;;;;;;;58.33;31.30;;;;;;;;;;6247884;23;20095;-94
2022/03/03 20:38:05;;;;;;;51.60;29.25;;;;;;;;;;6247838;23;20004;-94
2022/03/03 20:40:32;;;;;;;48.95;29.10;;;;;;;;;;6248214;23;20004;-94
2022/03/03 20:42:57;;;;;;;48.05;28.63;;;;;;;;;;6248056;23;20453;-95
2022/03/03 20:45:23;;;;;;;49.55;29.00;;;;;;;;;;6248244;23;20004;-95
2022/03/03 20:47:51;;;;;;;53.95;30.08;;;;;;;;;;6248124;23;20000;-94
2022/03/03 20:50:17;;;;;;;53.20;30.45;;;;;;;;;;6247755;23;20498;-93
2022/03/03 20:52:42;;;;;;;47.10;28.75;;;;;;;;;;6248230;23;20007;-95
2022/03/03 20:55:08;;;;;;;47.15;29.17;;;;;;;;;;6247298;23;20427;-93
2022/03/03 20:57:34;;;;;;;47.22;28.98;;;;;;;;;;6247452;23;20000;-94
2022/03/03 21:00:00;;;;;;;51.75;30.98;;;;;;;;;;6247623;23;20012;-96
2022/03/03 21:02:26;;;;;;;53.78;30.17;;;;;;;;;;6248371;23;20056;-96
2022/03/03 21:04:51;;;;;;;49.83;30.27;;;;;;;;;;6248170;23;20016;-93
2022/03/03 21:07:19;;;;;;;52.13;29.75;;;;;;;;;;6249995;22;20011;-95
2022/03/03 21:10:17;;;;;;;51.13;29.40;;;;;;;;;;6248883;23;20008;-95
2022/03/03 21:12:56;;;;;;;51.05;29.00;;;;;;;;;;6235988;23;20083;-96
2022/03/03 21:15:22;;;;;;;50.63;29.55;;;;;;;;;;6249503;23;20008;-94
2022/03/03 21:17:53;;;;;;;50.33;29.17;;;;;;;;;;6249740;23;20034;-96
2022/03/03 21:21:00;;;;;;;50.53;29.58;;;;;;;;;;6249627;23;20374;-96
2022/03/03 21:23:26;;;;;;;57.38;30.33;;;;;;;;;;6248220;23;20423;-96
2022/03/03 21:25:52;;;;;;;53.72;30.55;;;;;;;;;;6247712;23;20000;-95
2022/03/03 21:28:18;;;;;;;51.70;29.92;;;;;;;;;;6248008;23;20008;-95
2022/03/03 21:30:43;;;;;;;46.35;29.52;;;;;;;;;;6249581;23;20014;-94
2022/03/03 21:33:09;;;;;;;50.38;29.15;;;;;;;;;;6249508;23;20062;-96
2022/03/03 21:35:36;;;;;;;55.53;32.42;;;;;;;;;;6248946;23;20019;-94
2022/03/03 21:38:02;;;;;;;51.63;30.50;;;;;;;;;;6249026;23;20063;-96
2022/03/03 21:40:28;;;;;;;50.40;30.92;;;;;;;;;;6247926;23;20379;-96
2022/03/03 21:42:53;;;;;;;51.17;30.73;;;;;;;;;;6248853;23;20008;-95
2022/03/03 21:45:19;;;;;;;51.80;30.30;;;;;;;;;;6255376;23;20012;-96
2022/03/03 21:47:45;;;;;;;52.47;31.30;;;;;;;;;;6248772;23;20008;-95
2022/03/03 21:50:11;;;;;;;50.90;30.80;;;;;;;;;;6252818;23;20367;-95
2022/03/03 21:52:37;;;;;;;48.95;30.02;;;;;;;;;;6248533;23;20058;-96
2022/03/03 21:55:07;;;;;;;52.55;30.45;;;;;;;;;;6248455;23;20008;-96
2022/03/03 21:57:33;;;;;;;53.50;30.08;;;;;;;;;;6250286;23;20420;-96
2022/03/03 21:59:58;;;;;;;48.25;30.17;;;;;;;;;;6253918;23;20004;-96
2022/03/03 22:02:24;;;;;;;52.40;31.13;;;;;;;;;;6257601;23;20383;-96
2022/03/03 22:04:50;;;;;;;53.85;31.20;;;;;;;;;;6258332;23;20015;-96
2022/03/03 22:07:16;;;;;;;51.72;30.33;;;;;;;;;;6260330;23;20000;-96
2022/03/03 22:09:42;;;;;;;57.35;31.83;;;;;;;;;;6262948;23;20026;-96
2022/03/03 22:12:08;;;;;;;50.72;29.98;;;;;;;;;;6273452;22;20056;-96
2022/03/03 22:14:34;;;;;;;53.33;31.88;;;;;;;;;;6275820;22;19996;-94
2022/03/03 22:17:01;;;;;;;55.30;32.20;;;;;;;;;;6274479;22;19996;-94
2022/03/03 22:19:26;;;;;;;52.72;31.90;;;;;;;;;;6274817;22;19992;-94
2022/03/03 22:21:52;;;;;;;54.75;33.10;;;;;;;;;;6273951;22;20003;-95
2022/03/03 22:24:18;;;;;;;56.05;32.53;;;;;;;;;;6274043;22;19996;-94
2022/03/03 22:26:45;;;;;;;53.15;32.60;;;;;;;;;;6275259;22;19989;-95
2022/03/03 22:29:10;;;;;;;58.20;32.33;;;;;;;;;;6275308;22;20012;-95
2022/03/03 22:31:35;;;;;;;60.38;34.58;;;;;;;;;;6274360;22;19992;-96
2022/03/03 22:34:01;;;;;;;57.72;33.30;;;;;;;;;;6273690;22;19992;-92
2022/03/03 22:36:26;;;;;;;57.05;32.65;;;;;;;;;;6274334;23;20011;-94
2022/03/03 22:38:52;;;;;;;54.88;32.38;;;;;;;;;;6273175;22;20004;-94
2022/03/03 22:41:18;;;;;;;55.38;32.55;;;;;;;;;;6274199;23;19996;-96
2022/03/03 22:43:44;;;;;;;55.83;32.63;;;;;;;;;;6272762;22;20019;-95
2022/03/03 22:46:11;;;;;;;55.88;32.53;;;;;;;;;;6271680;23;20018;-93
2022/03/03 22:48:36;;;;;;;52.38;31.95;;;;;;;;;;6273070;22;20015;-95
2022/03/03 22:53:47;;;;;;;58.58;32.47;;;;;;;;;;6273190;23;20015;-94
2022/03/03 22:56:13;;;;;;;53.28;30.85;;;;;;;;;;6252364;23;20008;-96
2022/03/03 22:58:39;;;;;;;53.88;31.60;;;;;;;;;;6253263;23;20157;-96
2022/03/03 23:01:04;;;;;;;60.60;34.38;;;;;;;;;;6253591;23;20007;-94
2022/03/03 23:06:15;;;;;;;57.35;33.05;;;;;;;;;;6250092;23;20071;-94
2022/03/03 23:08:44;;;;;;;60.92;34.58;;;;;;;;;;6249625;23;20023;-94
2022/03/03 23:11:10;;;;;;;60.58;35.22;;;;;;;;;;6248895;23;20031;-92
2022/03/03 23:13:35;;;;;;;62.72;33.95;;;;;;;;;;6248644;23;20428;-95
2022/03/03 23:16:03;;;;;;;56.67;32.33;;;;;;;;;;6251329;23;20412;-94
